sensor_id;sensor_type;location;lat;lon;timestamp;P1;durP1;ratioP1;P2;durP2;ratioP2
32130;SDS011;18639;50.716;7.086;2023-04-24T00:02:22;0.30;;;0.30;;
32130;SDS011;18639;50.716;7.086;2023-04-24T00:04:48;0.30;;;0.30;;
32130;SDS011;18639;50.716;7.086;2023-04-24T00:07:14;0.55;;;0.43;;
32130;SDS011;18639;50.716;7.086;2023-04-24T00:09:42;0.88;;;0.40;;
32130;SDS011;18639;50.716;7.086;2023-04-24T00:12:08;0.47;;;0.40;;
32130;SDS011;18639;50.716;7.086;2023-04-24T00:14:33;0.30;;;0.30;;
32130;SDS011;18639;50.716;7.086;2023-04-24T00:17:00;0.30;;;0.30;;
32130;SDS011;18639;50.716;7.086;2023-04-24T00:19:27;0.30;;;0.30;;
32130;SDS011;18639;50.716;7.086;2023-04-24T00:21:53;0.38;;;0.38;;
32130;SDS011;18639;50.716;7.086;2023-04-24T00:24:19;0.20;;;0.20;;
32130;SDS011;18639;50.716;7.086;2023-04-24T00:26:45;0.30;;;0.30;;
32130;SDS011;18639;50.716;7.086;2023-04-24T00:29:10;0.30;;;0.30;;
32130;SDS011;18639;50.716;7.086;2023-04-24T00:31:35;0.22;;;0.22;;
32130;SDS011;18639;50.716;7.086;2023-04-24T00:34:01;0.40;;;0.40;;
32130;SDS011;18639;50.716;7.086;2023-04-24T00:36:27;0.35;;;0.30;;
32130;SDS011;18639;50.716;7.086;2023-04-24T00:38:52;0.30;;;0.30;;
32130;SDS011;18639;50.716;7.086;2023-04-24T00:41:18;0.43;;;0.30;;
32130;SDS011;18639;50.716;7.086;2023-04-24T00:43:44;0.30;;;0.30;;
32130;SDS011;18639;50.716;7.086;2023-04-24T00:46:10;0.30;;;0.30;;
32130;SDS011;18639;50.716;7.086;2023-04-24T00:48:37;0.40;;;0.40;;
32130;SDS011;18639;50.716;7.086;2023-04-24T00:51:04;0.40;;;0.40;;
32130;SDS011;18639;50.716;7.086;2023-04-24T00:53:29;0.43;;;0.40;;
32130;SDS011;18639;50.716;7.086;2023-04-24T00:55:54;1.95;;;1.52;;
32130;SDS011;18639;50.716;7.086;2023-04-24T00:58:20;0.20;;;0.20;;
32130;SDS011;18639;50.716;7.086;2023-04-24T01:00:46;0.45;;;0.40;;
32130;SDS011;18639;50.716;7.086;2023-04-24T01:03:13;0.30;;;0.30;;
32130;SDS011;18639;50.716;7.086;2023-04-24T01:05:39;0.30;;;0.30;;
32130;SDS011;18639;50.716;7.086;2023-04-24T01:08:05;1.05;;;0.50;;
32130;SDS011;18639;50.716;7.086;2023-04-24T01:10:31;0.50;;;0.40;;
32130;SDS011;18639;50.716;7.086;2023-04-24T01:12:59;0.32;;;0.32;;
32130;SDS011;18639;50.716;7.086;2023-04-24T01:15:25;0.30;;;0.30;;
32130;SDS011;18639;50.716;7.086;2023-04-24T01:17:50;0.75;;;0.40;;
32130;SDS011;18639;50.716;7.086;2023-04-24T01:20:15;0.30;;;0.30;;
32130;SDS011;18639;50.716;7.086;2023-04-24T01:22:42;0.60;;;0.50;;
32130;SDS011;18639;50.716;7.086;2023-04-24T01:25:08;0.40;;;0.38;;
32130;SDS011;18639;50.716;7.086;2023-04-24T01:27:33;0.68;;;0.30;;
32130;SDS011;18639;50.716;7.086;2023-04-24T01:29:58;0.95;;;0.40;;
32130;SDS011;18639;50.716;7.086;2023-04-24T01:32:24;2.15;;;0.50;;
32130;SDS011;18639;50.716;7.086;2023-04-24T01:34:50;0.60;;;0.52;;
32130;SDS011;18639;50.716;7.086;2023-04-24T01:37:16;0.90;;;0.60;;
32130;SDS011;18639;50.716;7.086;2023-04-24T01:39:42;0.43;;;0.40;;
32130;SDS011;18639;50.716;7.086;2023-04-24T01:42:08;0.65;;;0.50;;
32130;SDS011;18639;50.716;7.086;2023-04-24T01:44:34;1.15;;;0.60;;
32130;SDS011;18639;50.716;7.086;2023-04-24T01:47:00;0.85;;;0.60;;
32130;SDS011;18639;50.716;7.086;2023-04-24T01:49:26;1.05;;;0.60;;
32130;SDS011;18639;50.716;7.086;2023-04-24T01:51:52;1.08;;;0.50;;
32130;SDS011;18639;50.716;7.086;2023-04-24T01:54:17;1.15;;;0.60;;
32130;SDS011;18639;50.716;7.086;2023-04-24T01:56:42;1.10;;;0.60;;
32130;SDS011;18639;50.716;7.086;2023-04-24T01:59:11;0.82;;;0.57;;
32130;SDS011;18639;50.716;7.086;2023-04-24T02:01:37;0.52;;;0.52;;
32130;SDS011;18639;50.716;7.086;2023-04-24T02:04:03;0.95;;;0.63;;
32130;SDS011;18639;50.716;7.086;2023-04-24T02:06:30;0.70;;;0.57;;
32130;SDS011;18639;50.716;7.086;2023-04-24T02:08:57;1.38;;;0.70;;
32130;SDS011;18639;50.716;7.086;2023-04-24T02:11:23;1.02;;;0.70;;
32130;SDS011;18639;50.716;7.086;2023-04-24T02:13:49;0.70;;;0.60;;
32130;SDS011;18639;50.716;7.086;2023-04-24T02:16:15;0.93;;;0.75;;
32130;SDS011;18639;50.716;7.086;2023-04-24T02:18:40;1.20;;;0.90;;
32130;SDS011;18639;50.716;7.086;2023-04-24T02:21:06;3.13;;;0.95;;
32130;SDS011;18639;50.716;7.086;2023-04-24T02:23:31;2.38;;;1.00;;
32130;SDS011;18639;50.716;7.086;2023-04-24T02:25:56;1.13;;;0.77;;
32130;SDS011;18639;50.716;7.086;2023-04-24T02:28:21;1.60;;;0.77;;
32130;SDS011;18639;50.716;7.086;2023-04-24T02:30:47;1.95;;;0.88;;
32130;SDS011;18639;50.716;7.086;2023-04-24T02:33:12;1.25;;;0.77;;
32130;SDS011;18639;50.716;7.086;2023-04-24T02:35:37;2.50;;;0.95;;
32130;SDS011;18639;50.716;7.086;2023-04-24T02:38:03;1.73;;;0.70;;
32130;SDS011;18639;50.716;7.086;2023-04-24T02:40:28;2.85;;;1.13;;
32130;SDS011;18639;50.716;7.086;2023-04-24T02:42:54;2.45;;;1.20;;
32130;SDS011;18639;50.716;7.086;2023-04-24T02:45:19;1.73;;;1.15;;
32130;SDS011;18639;50.716;7.086;2023-04-24T02:47:44;4.00;;;1.10;;
32130;SDS011;18639;50.716;7.086;2023-04-24T02:50:10;2.15;;;1.10;;
32130;SDS011;18639;50.716;7.086;2023-04-24T02:52:35;1.67;;;0.90;;
32130;SDS011;18639;50.716;7.086;2023-04-24T02:55:00;1.75;;;1.00;;
32130;SDS011;18639;50.716;7.086;2023-04-24T02:57:26;2.25;;;1.10;;
32130;SDS011;18639;50.716;7.086;2023-04-24T02:59:51;5.53;;;1.20;;
32130;SDS011;18639;50.716;7.086;2023-04-24T03:02:16;3.47;;;1.27;;
32130;SDS011;18639;50.716;7.086;2023-04-24T03:04:41;2.45;;;1.15;;
32130;SDS011;18639;50.716;7.086;2023-04-24T03:07:09;3.20;;;1.20;;
32130;SDS011;18639;50.716;7.086;2023-04-24T03:09:34;2.75;;;1.10;;
32130;SDS011;18639;50.716;7.086;2023-04-24T03:11:59;3.65;;;1.38;;
32130;SDS011;18639;50.716;7.086;2023-04-24T03:14:25;1.40;;;1.00;;
32130;SDS011;18639;50.716;7.086;2023-04-24T03:16:50;2.20;;;1.20;;
32130;SDS011;18639;50.716;7.086;2023-04-24T03:19:16;2.03;;;1.13;;
32130;SDS011;18639;50.716;7.086;2023-04-24T03:21:41;2.13;;;1.20;;
32130;SDS011;18639;50.716;7.086;2023-04-24T03:24:07;2.35;;;1.38;;
32130;SDS011;18639;50.716;7.086;2023-04-24T03:26:32;2.33;;;1.13;;
32130;SDS011;18639;50.716;7.086;2023-04-24T03:28:58;5.00;;;1.25;;
32130;SDS011;18639;50.716;7.086;2023-04-24T03:31:23;2.55;;;1.23;;
32130;SDS011;18639;50.716;7.086;2023-04-24T03:33:48;3.35;;;1.38;;
32130;SDS011;18639;50.716;7.086;2023-04-24T03:36:13;6.15;;;1.55;;
32130;SDS011;18639;50.716;7.086;2023-04-24T03:38:39;1.52;;;1.00;;
32130;SDS011;18639;50.716;7.086;2023-04-24T03:41:04;1.92;;;1.10;;
32130;SDS011;18639;50.716;7.086;2023-04-24T03:43:29;3.05;;;1.40;;
32130;SDS011;18639;50.716;7.086;2023-04-24T03:45:54;1.95;;;1.00;;
32130;SDS011;18639;50.716;7.086;2023-04-24T03:48:20;3.03;;;1.10;;
32130;SDS011;18639;50.716;7.086;2023-04-24T03:50:45;2.88;;;1.45;;
32130;SDS011;18639;50.716;7.086;2023-04-24T03:53:10;2.83;;;1.30;;
32130;SDS011;18639;50.716;7.086;2023-04-24T03:55:36;2.17;;;1.17;;
32130;SDS011;18639;50.716;7.086;2023-04-24T03:58:01;2.30;;;1.40;;
32130;SDS011;18639;50.716;7.086;2023-04-24T04:00:26;1.92;;;1.02;;
32130;SDS011;18639;50.716;7.086;2023-04-24T04:02:52;1.70;;;0.98;;
32130;SDS011;18639;50.716;7.086;2023-04-24T04:05:17;2.45;;;1.35;;
32130;SDS011;18639;50.716;7.086;2023-04-24T04:07:44;2.80;;;1.20;;
32130;SDS011;18639;50.716;7.086;2023-04-24T04:10:09;2.38;;;1.13;;
32130;SDS011;18639;50.716;7.086;2023-04-24T04:12:34;2.03;;;0.93;;
32130;SDS011;18639;50.716;7.086;2023-04-24T04:15:00;3.70;;;1.25;;
32130;SDS011;18639;50.716;7.086;2023-04-24T04:17:25;4.65;;;1.38;;
32130;SDS011;18639;50.716;7.086;2023-04-24T04:19:51;1.90;;;1.17;;
32130;SDS011;18639;50.716;7.086;2023-04-24T04:22:16;3.47;;;1.20;;
32130;SDS011;18639;50.716;7.086;2023-04-24T04:24:41;2.55;;;0.95;;
32130;SDS011;18639;50.716;7.086;2023-04-24T04:27:07;2.40;;;1.10;;
32130;SDS011;18639;50.716;7.086;2023-04-24T04:29:33;2.50;;;1.10;;
32130;SDS011;18639;50.716;7.086;2023-04-24T04:31:59;2.22;;;1.20;;
32130;SDS011;18639;50.716;7.086;2023-04-24T04:34:25;2.88;;;1.40;;
32130;SDS011;18639;50.716;7.086;2023-04-24T04:36:50;5.35;;;1.40;;
32130;SDS011;18639;50.716;7.086;2023-04-24T04:39:15;3.85;;;1.48;;
32130;SDS011;18639;50.716;7.086;2023-04-24T04:41:41;2.50;;;0.90;;
32130;SDS011;18639;50.716;7.086;2023-04-24T04:44:06;2.20;;;1.08;;
32130;SDS011;18639;50.716;7.086;2023-04-24T04:46:33;2.97;;;1.27;;
32130;SDS011;18639;50.716;7.086;2023-04-24T04:48:59;2.78;;;1.20;;
32130;SDS011;18639;50.716;7.086;2023-04-24T04:51:26;2.08;;;1.05;;
32130;SDS011;18639;50.716;7.086;2023-04-24T04:53:52;3.40;;;1.33;;
32130;SDS011;18639;50.716;7.086;2023-04-24T04:56:17;2.45;;;1.13;;
32130;SDS011;18639;50.716;7.086;2023-04-24T04:58:42;3.13;;;1.20;;
32130;SDS011;18639;50.716;7.086;2023-04-24T05:01:07;2.55;;;1.23;;
32130;SDS011;18639;50.716;7.086;2023-04-24T05:03:33;2.72;;;1.30;;
32130;SDS011;18639;50.716;7.086;2023-04-24T05:05:58;2.17;;;0.90;;
32130;SDS011;18639;50.716;7.086;2023-04-24T05:08:23;2.08;;;1.25;;
32130;SDS011;18639;50.716;7.086;2023-04-24T05:10:48;5.20;;;1.52;;
32130;SDS011;18639;50.716;7.086;2023-04-24T05:13:14;1.85;;;0.93;;
32130;SDS011;18639;50.716;7.086;2023-04-24T05:15:39;1.70;;;1.05;;
32130;SDS011;18639;50.716;7.086;2023-04-24T05:18:05;2.10;;;1.15;;
32130;SDS011;18639;50.716;7.086;2023-04-24T05:20:30;2.72;;;1.25;;
32130;SDS011;18639;50.716;7.086;2023-04-24T05:22:55;3.08;;;1.30;;
32130;SDS011;18639;50.716;7.086;2023-04-24T05:25:21;1.75;;;1.17;;
32130;SDS011;18639;50.716;7.086;2023-04-24T05:27:46;1.85;;;1.35;;
32130;SDS011;18639;50.716;7.086;2023-04-24T05:30:11;5.15;;;1.33;;
32130;SDS011;18639;50.716;7.086;2023-04-24T05:32:37;1.88;;;1.10;;
32130;SDS011;18639;50.716;7.086;2023-04-24T05:35:02;3.33;;;1.25;;
32130;SDS011;18639;50.716;7.086;2023-04-24T05:37:27;1.42;;;0.98;;
32130;SDS011;18639;50.716;7.086;2023-04-24T05:39:53;2.25;;;1.20;;
32130;SDS011;18639;50.716;7.086;2023-04-24T05:42:18;2.92;;;1.27;;
32130;SDS011;18639;50.716;7.086;2023-04-24T05:44:43;4.85;;;1.35;;
32130;SDS011;18639;50.716;7.086;2023-04-24T05:47:08;2.15;;;1.15;;
32130;SDS011;18639;50.716;7.086;2023-04-24T05:49:34;2.33;;;1.23;;
32130;SDS011;18639;50.716;7.086;2023-04-24T05:51:59;4.57;;;1.30;;
32130;SDS011;18639;50.716;7.086;2023-04-24T05:54:24;2.67;;;1.17;;
32130;SDS011;18639;50.716;7.086;2023-04-24T05:56:50;2.97;;;1.30;;
32130;SDS011;18639;50.716;7.086;2023-04-24T05:59:15;2.85;;;1.40;;
32130;SDS011;18639;50.716;7.086;2023-04-24T06:01:41;3.15;;;1.40;;
32130;SDS011;18639;50.716;7.086;2023-04-24T06:04:06;2.25;;;1.20;;
32130;SDS011;18639;50.716;7.086;2023-04-24T06:06:32;2.13;;;1.20;;
32130;SDS011;18639;50.716;7.086;2023-04-24T06:08:57;5.18;;;1.58;;
32130;SDS011;18639;50.716;7.086;2023-04-24T06:11:23;4.32;;;1.70;;
32130;SDS011;18639;50.716;7.086;2023-04-24T06:13:49;3.47;;;1.30;;
32130;SDS011;18639;50.716;7.086;2023-04-24T06:16:16;1.55;;;1.08;;
32130;SDS011;18639;50.716;7.086;2023-04-24T06:18:41;3.17;;;1.30;;
32130;SDS011;18639;50.716;7.086;2023-04-24T06:21:06;2.92;;;1.42;;
32130;SDS011;18639;50.716;7.086;2023-04-24T06:23:32;3.60;;;1.50;;
32130;SDS011;18639;50.716;7.086;2023-04-24T06:25:58;5.75;;;1.77;;
32130;SDS011;18639;50.716;7.086;2023-04-24T06:28:25;2.05;;;1.23;;
32130;SDS011;18639;50.716;7.086;2023-04-24T06:30:51;3.25;;;1.50;;
32130;SDS011;18639;50.716;7.086;2023-04-24T06:33:16;2.53;;;1.23;;
32130;SDS011;18639;50.716;7.086;2023-04-24T06:35:41;2.35;;;1.15;;
32130;SDS011;18639;50.716;7.086;2023-04-24T06:38:07;2.47;;;1.40;;
32130;SDS011;18639;50.716;7.086;2023-04-24T06:40:32;3.55;;;1.50;;
32130;SDS011;18639;50.716;7.086;2023-04-24T06:42:58;2.55;;;1.10;;
32130;SDS011;18639;50.716;7.086;2023-04-24T06:45:25;2.08;;;1.20;;
32130;SDS011;18639;50.716;7.086;2023-04-24T06:47:50;2.08;;;1.00;;
32130;SDS011;18639;50.716;7.086;2023-04-24T06:50:16;2.15;;;1.27;;
32130;SDS011;18639;50.716;7.086;2023-04-24T06:52:41;2.25;;;1.00;;
32130;SDS011;18639;50.716;7.086;2023-04-24T06:55:07;5.70;;;1.60;;
32130;SDS011;18639;50.716;7.086;2023-04-24T06:57:32;3.72;;;1.30;;
32130;SDS011;18639;50.716;7.086;2023-04-24T06:59:58;3.08;;;1.27;;
32130;SDS011;18639;50.716;7.086;2023-04-24T07:02:24;1.27;;;0.70;;
32130;SDS011;18639;50.716;7.086;2023-04-24T07:04:49;3.20;;;1.10;;
32130;SDS011;18639;50.716;7.086;2023-04-24T07:07:15;1.67;;;1.00;;
32130;SDS011;18639;50.716;7.086;2023-04-24T07:09:41;1.45;;;0.90;;
32130;SDS011;18639;50.716;7.086;2023-04-24T07:12:07;1.63;;;1.10;;
32130;SDS011;18639;50.716;7.086;2023-04-24T07:14:35;1.98;;;1.05;;
32130;SDS011;18639;50.716;7.086;2023-04-24T07:17:02;5.60;;;0.98;;
32130;SDS011;18639;50.716;7.086;2023-04-24T07:19:28;1.45;;;1.00;;
32130;SDS011;18639;50.716;7.086;2023-04-24T07:21:54;2.85;;;0.90;;
32130;SDS011;18639;50.716;7.086;2023-04-24T07:24:20;1.33;;;0.90;;
32130;SDS011;18639;50.716;7.086;2023-04-24T07:26:45;1.15;;;0.70;;
32130;SDS011;18639;50.716;7.086;2023-04-24T07:29:11;2.15;;;1.05;;
32130;SDS011;18639;50.716;7.086;2023-04-24T07:31:37;2.25;;;1.10;;
32130;SDS011;18639;50.716;7.086;2023-04-24T07:34:02;2.08;;;0.75;;
32130;SDS011;18639;50.716;7.086;2023-04-24T07:36:28;2.22;;;0.98;;
32130;SDS011;18639;50.716;7.086;2023-04-24T07:38:53;0.73;;;0.60;;
32130;SDS011;18639;50.716;7.086;2023-04-24T07:41:19;1.13;;;0.60;;
32130;SDS011;18639;50.716;7.086;2023-04-24T07:43:45;1.33;;;0.68;;
32130;SDS011;18639;50.716;7.086;2023-04-24T07:46:11;1.38;;;0.70;;
32130;SDS011;18639;50.716;7.086;2023-04-24T07:48:36;1.20;;;0.60;;
32130;SDS011;18639;50.716;7.086;2023-04-24T07:51:01;2.15;;;1.00;;
32130;SDS011;18639;50.716;7.086;2023-04-24T07:53:27;0.73;;;0.70;;
32130;SDS011;18639;50.716;7.086;2023-04-24T07:55:53;1.08;;;0.57;;
32130;SDS011;18639;50.716;7.086;2023-04-24T07:58:20;0.73;;;0.60;;
32130;SDS011;18639;50.716;7.086;2023-04-24T08:00:46;0.80;;;0.60;;
32130;SDS011;18639;50.716;7.086;2023-04-24T08:03:11;1.25;;;0.50;;
32130;SDS011;18639;50.716;7.086;2023-04-24T08:05:37;0.43;;;0.43;;
32130;SDS011;18639;50.716;7.086;2023-04-24T08:08:03;0.40;;;0.40;;
32130;SDS011;18639;50.716;7.086;2023-04-24T08:10:28;0.43;;;0.43;;
32130;SDS011;18639;50.716;7.086;2023-04-24T08:12:53;0.85;;;0.40;;
32130;SDS011;18639;50.716;7.086;2023-04-24T08:15:20;1.13;;;0.55;;
32130;SDS011;18639;50.716;7.086;2023-04-24T08:17:45;0.43;;;0.43;;
32130;SDS011;18639;50.716;7.086;2023-04-24T08:20:11;0.55;;;0.38;;
32130;SDS011;18639;50.716;7.086;2023-04-24T08:22:40;0.52;;;0.40;;
32130;SDS011;18639;50.716;7.086;2023-04-24T08:25:06;1.88;;;0.50;;
32130;SDS011;18639;50.716;7.086;2023-04-24T08:27:32;0.70;;;0.60;;
32130;SDS011;18639;50.716;7.086;2023-04-24T08:29:57;0.75;;;0.60;;
32130;SDS011;18639;50.716;7.086;2023-04-24T08:32:23;1.25;;;0.70;;
32130;SDS011;18639;50.716;7.086;2023-04-24T08:34:49;1.88;;;0.70;;
32130;SDS011;18639;50.716;7.086;2023-04-24T08:37:20;0.70;;;0.60;;
32130;SDS011;18639;50.716;7.086;2023-04-24T08:39:45;1.08;;;0.68;;
32130;SDS011;18639;50.716;7.086;2023-04-24T08:42:11;0.57;;;0.43;;
32130;SDS011;18639;50.716;7.086;2023-04-24T08:44:36;0.50;;;0.50;;
32130;SDS011;18639;50.716;7.086;2023-04-24T08:47:02;1.17;;;0.60;;
32130;SDS011;18639;50.716;7.086;2023-04-24T08:49:28;1.55;;;0.43;;
32130;SDS011;18639;50.716;7.086;2023-04-24T08:51:53;0.75;;;0.50;;
32130;SDS011;18639;50.716;7.086;2023-04-24T08:54:19;0.80;;;0.68;;
32130;SDS011;18639;50.716;7.086;2023-04-24T08:56:44;1.50;;;0.60;;
32130;SDS011;18639;50.716;7.086;2023-04-24T08:59:14;1.00;;;0.65;;
32130;SDS011;18639;50.716;7.086;2023-04-24T09:01:40;1.05;;;0.70;;
32130;SDS011;18639;50.716;7.086;2023-04-24T09:04:06;1.17;;;0.65;;
32130;SDS011;18639;50.716;7.086;2023-04-24T09:06:35;1.83;;;0.80;;
32130;SDS011;18639;50.716;7.086;2023-04-24T09:09:01;1.25;;;0.73;;
32130;SDS011;18639;50.716;7.086;2023-04-24T09:11:28;3.65;;;0.95;;
32130;SDS011;18639;50.716;7.086;2023-04-24T09:13:55;7.88;;;1.00;;
32130;SDS011;18639;50.716;7.086;2023-04-24T09:16:21;1.67;;;0.88;;
32130;SDS011;18639;50.716;7.086;2023-04-24T09:18:48;1.25;;;0.90;;
32130;SDS011;18639;50.716;7.086;2023-04-24T09:21:14;2.15;;;1.25;;
32130;SDS011;18639;50.716;7.086;2023-04-24T09:23:39;2.28;;;0.95;;
32130;SDS011;18639;50.716;7.086;2023-04-24T09:26:05;2.60;;;1.23;;
32130;SDS011;18639;50.716;7.086;2023-04-24T09:28:32;1.27;;;0.85;;
32130;SDS011;18639;50.716;7.086;2023-04-24T09:31:04;1.50;;;0.88;;
32130;SDS011;18639;50.716;7.086;2023-04-24T09:33:34;0.65;;;0.63;;
32130;SDS011;18639;50.716;7.086;2023-04-24T09:36:00;1.05;;;0.68;;
32130;SDS011;18639;50.716;7.086;2023-04-24T09:38:32;1.83;;;1.00;;
32130;SDS011;18639;50.716;7.086;2023-04-24T09:41:00;1.23;;;0.90;;
32130;SDS011;18639;50.716;7.086;2023-04-24T09:43:27;1.88;;;0.85;;
32130;SDS011;18639;50.716;7.086;2023-04-24T09:45:55;1.00;;;0.90;;
32130;SDS011;18639;50.716;7.086;2023-04-24T09:48:32;1.50;;;0.85;;
32130;SDS011;18639;50.716;7.086;2023-04-24T09:50:59;1.77;;;1.00;;
32130;SDS011;18639;50.716;7.086;2023-04-24T09:53:29;1.17;;;0.80;;
32130;SDS011;18639;50.716;7.086;2023-04-24T09:55:56;3.22;;;0.98;;
32130;SDS011;18639;50.716;7.086;2023-04-24T09:58:28;4.72;;;0.80;;
32130;SDS011;18639;50.716;7.086;2023-04-24T10:00:54;1.77;;;0.90;;
32130;SDS011;18639;50.716;7.086;2023-04-24T10:03:23;1.40;;;0.80;;
32130;SDS011;18639;50.716;7.086;2023-04-24T10:05:51;1.48;;;0.90;;
32130;SDS011;18639;50.716;7.086;2023-04-24T10:08:17;1.33;;;0.82;;
32130;SDS011;18639;50.716;7.086;2023-04-24T10:10:44;4.00;;;1.27;;
32130;SDS011;18639;50.716;7.086;2023-04-24T10:13:11;1.50;;;0.90;;
32130;SDS011;18639;50.716;7.086;2023-04-24T10:15:38;2.42;;;1.02;;
32130;SDS011;18639;50.716;7.086;2023-04-24T10:18:05;2.08;;;1.00;;
32130;SDS011;18639;50.716;7.086;2023-04-24T10:20:34;2.47;;;1.00;;
32130;SDS011;18639;50.716;7.086;2023-04-24T10:23:00;2.45;;;1.05;;
32130;SDS011;18639;50.716;7.086;2023-04-24T10:25:27;1.77;;;0.90;;
32130;SDS011;18639;50.716;7.086;2023-04-24T10:27:54;1.30;;;0.85;;
32130;SDS011;18639;50.716;7.086;2023-04-24T10:30:34;2.65;;;0.95;;
32130;SDS011;18639;50.716;7.086;2023-04-24T10:33:00;3.47;;;1.17;;
32130;SDS011;18639;50.716;7.086;2023-04-24T10:35:39;1.85;;;0.88;;
32130;SDS011;18639;50.716;7.086;2023-04-24T10:38:13;1.38;;;0.90;;
32130;SDS011;18639;50.716;7.086;2023-04-24T10:40:41;1.42;;;0.75;;
32130;SDS011;18639;50.716;7.086;2023-04-24T10:43:07;1.45;;;0.70;;
32130;SDS011;18639;50.716;7.086;2023-04-24T10:45:36;2.22;;;0.90;;
32130;SDS011;18639;50.716;7.086;2023-04-24T10:48:05;1.98;;;0.80;;
32130;SDS011;18639;50.716;7.086;2023-04-24T10:53:18;2.50;;;1.05;;
32130;SDS011;18639;50.716;7.086;2023-04-24T10:55:48;7.78;;;1.00;;
32130;SDS011;18639;50.716;7.086;2023-04-24T10:58:21;2.60;;;1.02;;
32130;SDS011;18639;50.716;7.086;2023-04-24T11:00:55;2.97;;;1.08;;
32130;SDS011;18639;50.716;7.086;2023-04-24T11:03:25;1.67;;;0.98;;
32130;SDS011;18639;50.716;7.086;2023-04-24T11:10:58;2.80;;;1.33;;
32130;SDS011;18639;50.716;7.086;2023-04-24T11:13:27;3.67;;;1.58;;
32130;SDS011;18639;50.716;7.086;2023-04-24T11:16:29;3.58;;;1.40;;
32130;SDS011;18639;50.716;7.086;2023-04-24T11:19:09;3.97;;;1.73;;
32130;SDS011;18639;50.716;7.086;2023-04-24T11:22:00;3.47;;;1.40;;
32130;SDS011;18639;50.716;7.086;2023-04-24T11:27:06;5.45;;;1.50;;
32130;SDS011;18639;50.716;7.086;2023-04-24T11:29:39;2.67;;;1.58;;
32130;SDS011;18639;50.716;7.086;2023-04-24T11:32:19;3.65;;;1.70;;
32130;SDS011;18639;50.716;7.086;2023-04-24T11:35:03;2.53;;;1.40;;
32130;SDS011;18639;50.716;7.086;2023-04-24T11:40:00;3.10;;;1.30;;
32130;SDS011;18639;50.716;7.086;2023-04-24T11:42:25;6.63;;;1.52;;
32130;SDS011;18639;50.716;7.086;2023-04-24T11:44:54;3.72;;;1.63;;
32130;SDS011;18639;50.716;7.086;2023-04-24T11:47:27;3.63;;;1.80;;
32130;SDS011;18639;50.716;7.086;2023-04-24T11:49:56;2.00;;;1.20;;
32130;SDS011;18639;50.716;7.086;2023-04-24T11:52:21;5.20;;;1.55;;
32130;SDS011;18639;50.716;7.086;2023-04-24T11:54:47;4.35;;;1.50;;
32130;SDS011;18639;50.716;7.086;2023-04-24T11:57:14;5.32;;;1.20;;
32130;SDS011;18639;50.716;7.086;2023-04-24T11:59:39;2.83;;;1.38;;
32130;SDS011;18639;50.716;7.086;2023-04-24T12:02:04;2.40;;;1.60;;
32130;SDS011;18639;50.716;7.086;2023-04-24T12:04:37;3.97;;;1.63;;
32130;SDS011;18639;50.716;7.086;2023-04-24T12:07:06;4.78;;;1.58;;
32130;SDS011;18639;50.716;7.086;2023-04-24T12:12:08;5.45;;;1.65;;
32130;SDS011;18639;50.716;7.086;2023-04-24T12:14:41;2.75;;;1.45;;
32130;SDS011;18639;50.716;7.086;2023-04-24T12:17:07;3.17;;;1.38;;
32130;SDS011;18639;50.716;7.086;2023-04-24T12:19:33;2.97;;;1.60;;
32130;SDS011;18639;50.716;7.086;2023-04-24T12:21:59;2.85;;;1.65;;
32130;SDS011;18639;50.716;7.086;2023-04-24T12:24:25;2.03;;;1.40;;
32130;SDS011;18639;50.716;7.086;2023-04-24T12:26:50;3.13;;;1.30;;
32130;SDS011;18639;50.716;7.086;2023-04-24T12:29:19;2.33;;;1.17;;
32130;SDS011;18639;50.716;7.086;2023-04-24T12:31:48;3.25;;;1.50;;
32130;SDS011;18639;50.716;7.086;2023-04-24T12:34:20;7.50;;;1.90;;
32130;SDS011;18639;50.716;7.086;2023-04-24T12:36:46;4.65;;;1.85;;
32130;SDS011;18639;50.716;7.086;2023-04-24T12:39:15;3.00;;;1.50;;
32130;SDS011;18639;50.716;7.086;2023-04-24T12:41:56;3.85;;;1.77;;
32130;SDS011;18639;50.716;7.086;2023-04-24T12:44:29;5.55;;;1.85;;
32130;SDS011;18639;50.716;7.086;2023-04-24T12:46:56;4.30;;;1.92;;
32130;SDS011;18639;50.716;7.086;2023-04-24T12:49:22;2.88;;;1.70;;
32130;SDS011;18639;50.716;7.086;2023-04-24T12:51:47;4.88;;;1.85;;
32130;SDS011;18639;50.716;7.086;2023-04-24T12:54:12;4.68;;;1.80;;
32130;SDS011;18639;50.716;7.086;2023-04-24T12:56:38;3.83;;;1.88;;
32130;SDS011;18639;50.716;7.086;2023-04-24T12:59:04;4.18;;;2.08;;
32130;SDS011;18639;50.716;7.086;2023-04-24T13:01:30;4.68;;;1.70;;
32130;SDS011;18639;50.716;7.086;2023-04-24T13:03:55;3.33;;;1.50;;
32130;SDS011;18639;50.716;7.086;2023-04-24T13:06:20;3.42;;;1.38;;
32130;SDS011;18639;50.716;7.086;2023-04-24T13:08:46;3.75;;;1.67;;
32130;SDS011;18639;50.716;7.086;2023-04-24T13:11:12;2.40;;;1.40;;
32130;SDS011;18639;50.716;7.086;2023-04-24T13:13:38;3.63;;;1.75;;
32130;SDS011;18639;50.716;7.086;2023-04-24T13:16:03;2.15;;;1.20;;
32130;SDS011;18639;50.716;7.086;2023-04-24T13:18:29;3.70;;;1.52;;
32130;SDS011;18639;50.716;7.086;2023-04-24T13:20:54;3.13;;;1.63;;
32130;SDS011;18639;50.716;7.086;2023-04-24T13:23:20;3.67;;;1.42;;
32130;SDS011;18639;50.716;7.086;2023-04-24T13:25:45;3.03;;;1.55;;
32130;SDS011;18639;50.716;7.086;2023-04-24T13:28:10;1.85;;;1.00;;
32130;SDS011;18639;50.716;7.086;2023-04-24T13:30:36;1.85;;;1.13;;
32130;SDS011;18639;50.716;7.086;2023-04-24T13:33:01;3.38;;;0.98;;
32130;SDS011;18639;50.716;7.086;2023-04-24T13:35:27;4.80;;;1.92;;
32130;SDS011;18639;50.716;7.086;2023-04-24T13:37:53;6.47;;;1.33;;
32130;SDS011;18639;50.716;7.086;2023-04-24T13:40:18;2.90;;;1.20;;
32130;SDS011;18639;50.716;7.086;2023-04-24T13:42:43;1.73;;;1.13;;
32130;SDS011;18639;50.716;7.086;2023-04-24T13:45:09;3.70;;;1.55;;
32130;SDS011;18639;50.716;7.086;2023-04-24T13:47:34;4.80;;;1.17;;
32130;SDS011;18639;50.716;7.086;2023-04-24T13:50:01;5.03;;;1.67;;
32130;SDS011;18639;50.716;7.086;2023-04-24T13:52:28;2.67;;;1.40;;
32130;SDS011;18639;50.716;7.086;2023-04-24T13:54:54;3.40;;;1.08;;
32130;SDS011;18639;50.716;7.086;2023-04-24T13:57:20;4.18;;;1.58;;
32130;SDS011;18639;50.716;7.086;2023-04-24T13:59:45;2.90;;;1.27;;
32130;SDS011;18639;50.716;7.086;2023-04-24T14:02:11;2.15;;;1.10;;
32130;SDS011;18639;50.716;7.086;2023-04-24T14:04:36;3.70;;;1.42;;
32130;SDS011;18639;50.716;7.086;2023-04-24T14:07:01;3.83;;;1.60;;
32130;SDS011;18639;50.716;7.086;2023-04-24T14:09:27;2.42;;;1.30;;
32130;SDS011;18639;50.716;7.086;2023-04-24T14:11:52;2.70;;;1.27;;
32130;SDS011;18639;50.716;7.086;2023-04-24T14:14:17;1.60;;;1.08;;
32130;SDS011;18639;50.716;7.086;2023-04-24T14:16:42;3.28;;;1.48;;
32130;SDS011;18639;50.716;7.086;2023-04-24T14:19:08;1.75;;;1.30;;
32130;SDS011;18639;50.716;7.086;2023-04-24T14:21:33;2.10;;;1.13;;
32130;SDS011;18639;50.716;7.086;2023-04-24T14:23:58;4.05;;;1.70;;
32130;SDS011;18639;50.716;7.086;2023-04-24T14:26:24;4.70;;;1.17;;
32130;SDS011;18639;50.716;7.086;2023-04-24T14:28:50;4.72;;;1.70;;
32130;SDS011;18639;50.716;7.086;2023-04-24T14:31:15;2.65;;;1.23;;
32130;SDS011;18639;50.716;7.086;2023-04-24T14:33:41;4.15;;;1.65;;
32130;SDS011;18639;50.716;7.086;2023-04-24T14:36:06;2.97;;;1.20;;
32130;SDS011;18639;50.716;7.086;2023-04-24T14:38:31;2.42;;;1.40;;
32130;SDS011;18639;50.716;7.086;2023-04-24T14:40:57;4.93;;;2.08;;
32130;SDS011;18639;50.716;7.086;2023-04-24T14:43:22;3.10;;;1.65;;
32130;SDS011;18639;50.716;7.086;2023-04-24T14:45:47;3.55;;;1.48;;
32130;SDS011;18639;50.716;7.086;2023-04-24T14:48:13;2.80;;;1.40;;
32130;SDS011;18639;50.716;7.086;2023-04-24T14:50:38;3.28;;;1.30;;
32130;SDS011;18639;50.716;7.086;2023-04-24T14:53:03;5.55;;;1.50;;
32130;SDS011;18639;50.716;7.086;2023-04-24T14:55:29;2.80;;;1.45;;
32130;SDS011;18639;50.716;7.086;2023-04-24T14:57:54;3.33;;;1.52;;
32130;SDS011;18639;50.716;7.086;2023-04-24T15:00:20;4.13;;;1.77;;